createdAt,value
2019-04-05T00:00:19.357Z,14.1
2019-04-05T00:02:19.036Z,15.4
2019-04-05T00:04:18.708Z,21.4
2019-04-05T00:06:19.556Z,5.4
2019-04-05T00:08:19.210Z,8.4
2019-04-05T00:10:19.393Z,10
2019-04-05T00:12:19.051Z,11.7
2019-04-05T00:14:18.698Z,7.9
2019-04-05T00:16:19.076Z,7.8
2019-04-05T00:18:18.793Z,9.1
2019-04-05T00:20:19.487Z,7.2
2019-04-05T00:22:19.189Z,9.4
2019-04-05T00:24:18.852Z,10.3
2019-04-05T00:26:18.652Z,10.9
2019-04-05T00:28:19.294Z,10.1
2019-04-05T00:30:18.977Z,12.8
2019-04-05T00:32:18.642Z,11.2
2019-04-05T00:34:19.323Z,6.6
2019-04-05T00:36:18.928Z,9.5
2019-04-05T00:38:19.570Z,8.6
2019-04-05T00:40:18.688Z,10.8
2019-04-05T00:42:19.344Z,18.5
2019-04-05T00:44:18.998Z,6.7
2019-04-05T00:46:19.298Z,13.9
2019-04-05T00:48:18.977Z,8.8
2019-04-05T00:50:18.765Z,34.2
2019-04-05T00:52:19.426Z,5.9
2019-04-05T00:54:19.069Z,8
2019-04-05T00:56:19.412Z,6.1
2019-04-05T00:58:19.037Z,8.3
2019-04-05T01:00:18.699Z,10.4
2019-04-05T01:02:19.354Z,6.2
2019-04-05T01:04:19.005Z,8.1
2019-04-05T01:06:19.382Z,10.9
2019-04-05T01:08:19.071Z,8.9
2019-04-05T01:10:19.243Z,9.3
2019-04-05T01:12:18.906Z,12.2
2019-04-05T01:14:19.558Z,13.5
2019-04-05T01:16:18.921Z,15.2
2019-04-05T01:18:18.655Z,6.4
2019-04-05T01:20:19.345Z,12.6
2019-04-05T01:22:18.997Z,17.6
2019-04-05T01:24:18.640Z,10.8
2019-04-05T01:26:18.874Z,12
2019-04-05T01:28:19.526Z,14.6
2019-04-05T01:30:19.224Z,6.1
2019-04-05T01:32:18.892Z,17.3
2019-04-05T01:34:19.547Z,9.1
2019-04-05T01:36:19.092Z,10.2
2019-04-05T01:38:18.738Z,11.4
2019-04-05T01:40:18.887Z,10.8
2019-04-05T01:42:19.536Z,7.9
2019-04-05T01:44:19.203Z,9.1
2019-04-05T01:46:18.793Z,11.2
2019-04-05T01:48:19.438Z,8.7
2019-04-05T01:50:19.162Z,16.7
2019-04-05T01:52:18.814Z,16.1
2019-04-05T01:54:19.470Z,21.2
2019-04-05T01:56:19.304Z,21.7
2019-04-05T01:58:18.960Z,6.1
2019-04-05T02:00:18.626Z,9.4
2019-04-05T02:02:19.331Z,17.8
2019-04-05T02:04:18.986Z,8.5
2019-04-05T02:06:18.835Z,10.2
2019-04-05T02:08:19.477Z,14.6
2019-04-05T02:10:19.582Z,11.8
2019-04-05T02:12:19.081Z,21.7
2019-04-05T02:14:18.754Z,8.1
2019-04-05T02:16:19.124Z,8.5
2019-04-05T02:18:18.850Z,11
2019-04-05T02:20:19.524Z,15.6
2019-04-05T02:22:19.170Z,13.4
2019-04-05T02:24:18.824Z,12.9
2019-04-05T02:26:19.139Z,15.4
2019-04-05T02:28:18.773Z,11.6
2019-04-05T02:30:19.470Z,10.5
2019-04-05T02:32:19.131Z,14.5
2019-04-05T02:34:18.837Z,13
2019-04-05T02:36:19.162Z,16.1
2019-04-05T02:38:18.811Z,7.3
2019-04-05T02:40:18.990Z,24.5
2019-04-05T02:42:18.659Z,9.4
2019-04-05T02:44:19.310Z,10.1
2019-04-05T02:46:24.573Z,17.8
2019-04-05T02:48:19.287Z,9.6
2019-04-05T02:50:18.981Z,14.9
2019-04-05T02:52:18.631Z,11.4
2019-04-05T02:54:19.330Z,7.7
2019-04-05T02:56:19.370Z,28
2019-04-05T02:58:19.012Z,12.1
2019-04-05T03:00:18.657Z,10.9
2019-04-05T03:02:19.312Z,13
2019-04-05T03:04:18.973Z,19.2
2019-04-05T03:06:19.386Z,11.3
2019-04-05T03:08:19.136Z,12.5
2019-04-05T03:10:19.262Z,12.2
2019-04-05T03:12:19.513Z,12.2
2019-04-05T03:14:19.191Z,11.3
2019-04-05T03:16:19.581Z,13.2
2019-04-05T03:18:19.326Z,11.8
2019-04-05T03:20:19.056Z,9.9
2019-04-05T03:22:18.698Z,11.2
2019-04-05T03:24:19.348Z,7.9
2019-04-05T03:26:18.917Z,15.2
2019-04-05T03:28:19.566Z,16.7
2019-04-05T03:30:19.289Z,13.2
2019-04-05T03:32:18.955Z,6.7
2019-04-05T03:34:18.610Z,13.6
2019-04-05T03:36:19.577Z,13.8
2019-04-05T03:38:19.207Z,12.9
2019-04-05T03:40:19.341Z,11.1
2019-04-05T03:42:18.996Z,14.9
2019-04-05T03:44:23.470Z,15.6
2019-04-05T03:46:19.396Z,12.6
2019-04-05T03:48:19.077Z,10
2019-04-05T03:50:18.722Z,22.3
2019-04-05T03:52:19.392Z,11.2
2019-04-05T03:54:19.043Z,10.9
2019-04-05T03:56:19.039Z,17.3
2019-04-05T03:58:18.685Z,21.2
2019-04-05T04:00:19.407Z,11.1
2019-04-05T04:02:19.059Z,17.3
2019-04-05T04:04:18.741Z,19.7
2019-04-05T04:06:19.131Z,19
2019-04-05T04:08:18.832Z,15.4
2019-04-05T04:10:18.945Z,14
2019-04-05T04:12:18.618Z,39.5
2019-04-05T04:14:19.265Z,12.9
2019-04-05T04:16:19.181Z,17.6
2019-04-05T04:18:19.001Z,15.9
2019-04-05T04:20:18.773Z,48.7
2019-04-05T04:22:19.443Z,32.4
2019-04-05T04:24:19.108Z,17.7
2019-04-05T04:26:18.949Z,16
2019-04-05T04:28:18.591Z,26.5
2019-04-05T04:30:19.255Z,46.2
2019-04-05T04:32:18.875Z,36.8
2019-04-05T04:34:19.561Z,34.2
2019-04-05T04:36:18.891Z,37.2
2019-04-05T04:38:19.555Z,31.3
2019-04-05T04:40:18.678Z,31.5
2019-04-05T04:42:19.322Z,41.6
2019-04-05T04:44:18.984Z,51.7
2019-04-05T04:46:18.919Z,49.2
2019-04-05T04:48:19.562Z,47.3
2019-04-05T04:50:19.231Z,45.2
2019-04-05T04:52:18.897Z,45.2
2019-04-05T04:54:19.543Z,48.3
2019-04-05T04:56:19.442Z,42.8
2019-04-05T04:58:19.083Z,46.9
2019-04-05T05:00:18.787Z,47.6
2019-04-05T05:02:19.417Z,39.3
2019-04-05T05:04:19.060Z,36.4
2019-04-05T05:06:19.334Z,42.6
2019-04-05T05:08:18.971Z,40.4
2019-04-05T05:10:19.188Z,38
2019-04-05T05:12:18.826Z,38.1
2019-04-05T05:14:19.457Z,43.4
2019-04-05T05:16:18.987Z,44.1
2019-04-05T05:18:18.705Z,44.6
2019-04-05T05:20:19.356Z,38
2019-04-05T05:22:19.010Z,40.9
2019-04-05T05:24:18.649Z,40.9
2019-04-05T05:26:19.089Z,48.9
2019-04-05T05:28:18.755Z,47.7
2019-04-05T05:30:19.430Z,43.6
2019-04-05T05:32:18.999Z,47
2019-04-05T05:34:18.629Z,43.8
2019-04-05T05:36:19.062Z,46.5
2019-04-05T05:38:18.713Z,49.5
2019-04-05T05:40:18.822Z,37
2019-04-05T05:42:19.468Z,34.4
2019-04-05T05:44:19.120Z,49.3
2019-04-05T05:46:19.407Z,41.4
2019-04-05T05:48:19.075Z,40.1
2019-04-05T05:50:18.776Z,42.4
2019-04-05T05:52:19.396Z,40.7
2019-04-05T05:54:19.063Z,48.6
2019-04-05T05:56:18.903Z,37.8
2019-04-05T05:58:19.579Z,38.1
2019-04-05T06:00:19.494Z,44.2
2019-04-05T06:02:19.142Z,42
2019-04-05T06:04:18.788Z,43.1
2019-04-05T06:06:19.041Z,46
2019-04-05T06:08:18.667Z,47
2019-04-05T06:10:18.780Z,44.6
2019-04-05T06:12:19.445Z,45
2019-04-05T06:14:19.073Z,45.7
2019-04-05T06:16:18.883Z,45.4
2019-04-05T06:18:18.593Z,55
2019-04-05T06:20:19.246Z,54.5
2019-04-05T06:22:18.874Z,45.3
2019-04-05T06:24:19.521Z,57.8
2019-04-05T06:26:19.143Z,60.8
2019-04-05T06:28:18.781Z,49.1
2019-04-05T06:30:19.485Z,53.3
2019-04-05T06:32:19.140Z,57.1
2019-04-05T06:34:18.757Z,55.5
2019-04-05T06:36:18.689Z,52.6
2019-04-05T06:38:19.318Z,54.1
2019-04-05T06:40:19.486Z,57.5
2019-04-05T06:42:19.156Z,55.5
2019-04-05T06:44:18.845Z,51.9
2019-04-05T06:46:19.210Z,64.6
2019-04-05T06:48:20.014Z,52.5
2019-04-05T06:50:18.675Z,51.8
2019-04-05T06:52:19.294Z,44.6
2019-04-05T06:54:18.933Z,51.5
2019-04-05T06:56:19.432Z,47.4
2019-04-05T06:58:28.723Z,51.3
2019-04-05T07:00:19.319Z,53.2
2019-04-05T07:02:19.023Z,57.9
2019-04-05T07:04:18.644Z,53.1
2019-04-05T07:06:18.913Z,63.8
2019-04-05T07:08:19.552Z,50.9
2019-04-05T07:10:18.770Z,47.5
2019-04-05T07:12:20.972Z,44.5
2019-04-05T07:14:18.647Z,48.9
2019-04-05T07:16:19.137Z,54.2
2019-04-05T07:18:35.937Z,45
2019-04-05T07:20:18.868Z,42.8
2019-04-05T07:22:39.038Z,51.2
2019-04-05T07:24:19.127Z,50.5
2019-04-05T07:26:21.269Z,64
2019-04-05T07:28:18.930Z,54.4
2019-04-05T07:30:19.591Z,50.4
2019-04-05T07:32:19.216Z,49
2019-04-05T07:34:18.883Z,62.5
2019-04-05T07:36:19.213Z,54.2
2019-04-05T07:38:18.880Z,59.1
2019-04-05T07:40:18.989Z,52.5
2019-04-05T07:42:18.660Z,48
2019-04-05T07:44:19.295Z,53.5
2019-04-05T07:46:18.649Z,55.9
2019-04-05T07:48:19.289Z,43.8
2019-04-05T07:50:18.977Z,44.5
2019-04-05T07:52:18.608Z,52.2
2019-04-05T07:54:19.256Z,51.5
2019-04-05T07:56:19.271Z,49.8
2019-04-05T07:58:18.914Z,43.4
2019-04-05T08:00:19.570Z,49.1
2019-04-05T08:02:19.212Z,61.1
2019-04-05T08:04:18.827Z,44
2019-04-05T08:06:19.201Z,51.7
2019-04-05T08:08:18.824Z,48.5
2019-04-05T08:10:18.971Z,58
2019-04-05T08:12:18.618Z,51.3
2019-04-05T08:14:19.252Z,57.8
2019-04-05T08:16:18.662Z,43.5
2019-04-05T08:18:19.404Z,52.7
2019-04-05T08:20:19.067Z,48.6
2019-04-05T08:22:18.716Z,47.5
2019-04-05T08:24:19.346Z,50.8
2019-04-05T08:26:18.649Z,49.3
2019-04-05T08:28:19.321Z,46.8
2019-04-05T08:30:18.970Z,45
2019-04-05T08:32:18.622Z,48.9
2019-04-05T08:34:19.291Z,50.7
2019-04-05T08:36:19.591Z,51
2019-04-05T08:38:19.211Z,60
2019-04-05T08:40:19.349Z,55.7
2019-04-05T08:42:18.995Z,60.9
2019-04-05T08:44:18.637Z,50.2
2019-04-05T08:46:19.421Z,53.5
2019-04-05T08:48:19.099Z,38.6
2019-04-05T08:50:18.750Z,49.4
2019-04-05T08:52:19.416Z,46.3
2019-04-05T08:54:34.025Z,40.7
2019-04-05T08:56:18.971Z,55.1
2019-04-05T08:58:18.605Z,47.6
2019-04-05T09:00:19.288Z,52.2
2019-04-05T09:02:18.914Z,44.3
2019-04-05T09:04:19.584Z,51.1
2019-04-05T09:06:18.909Z,57.6
2019-04-05T09:08:21.660Z,50.3
2019-04-05T09:10:18.767Z,45.9
2019-04-05T09:12:19.406Z,46.6
2019-04-05T09:14:21.148Z,44.5
2019-04-05T09:16:18.996Z,59.8
2019-04-05T09:18:18.711Z,48.8
2019-04-05T09:20:19.370Z,50.9
2019-04-05T09:22:19.039Z,49.3
2019-04-05T09:24:18.677Z,49
2019-04-05T09:26:19.520Z,44.4
2019-04-05T09:28:19.173Z,63.2
2019-04-05T09:30:18.861Z,55
2019-04-05T09:32:19.526Z,57.5
2019-04-05T09:34:19.219Z,55.1
2019-04-05T09:36:19.104Z,55.7
2019-04-05T09:38:18.790Z,59.6
2019-04-05T09:40:21.420Z,47.7
2019-04-05T09:42:19.063Z,53.9
2019-04-05T09:44:18.721Z,47.2
2019-04-05T09:46:19.503Z,57.9
2019-04-05T09:48:19.148Z,54.6
2019-04-05T09:50:19.204Z,53.3
2019-04-05T09:52:18.887Z,55.4
2019-04-05T09:54:19.536Z,54.2
2019-04-05T09:56:18.830Z,46.9
2019-04-05T09:58:19.494Z,46.9
2019-04-05T10:00:19.177Z,41.9
2019-04-05T10:02:18.842Z,45.9
2019-04-05T10:04:19.512Z,41.1
2019-04-05T10:06:19.563Z,42.9
2019-04-05T10:08:19.220Z,50
2019-04-05T10:10:19.319Z,48.4
2019-04-05T10:12:18.993Z,55.2
2019-04-05T10:14:18.676Z,52.8
2019-04-05T10:16:19.052Z,53.8
2019-04-05T10:18:18.788Z,45.4
2019-04-05T10:20:19.449Z,54
2019-04-05T10:22:19.106Z,51.6
2019-04-05T10:24:18.747Z,52.1
2019-04-05T10:26:19.281Z,50.9
2019-04-05T10:28:18.954Z,56.6
2019-04-05T10:30:18.772Z,52.3
2019-04-05T10:32:19.413Z,56.1
2019-04-05T10:34:19.091Z,57.4
2019-04-05T10:36:20.358Z,51.1
2019-04-05T10:38:19.042Z,61.4
2019-04-05T10:40:19.135Z,59.6
2019-04-05T10:42:18.776Z,58.4
2019-04-05T10:44:19.401Z,57.5
2019-04-05T10:46:19.239Z,54.9
2019-04-05T10:48:18.883Z,49.5
2019-04-05T10:50:19.515Z,58.3
2019-04-05T10:52:19.176Z,44.5
2019-04-05T10:54:18.838Z,46.5
2019-04-05T10:56:18.754Z,42.7
2019-04-05T10:58:19.379Z,45.7
2019-04-05T11:00:19.083Z,46.5
2019-04-05T11:02:18.722Z,42.8
2019-04-05T11:04:19.382Z,44.9
2019-04-05T11:06:18.661Z,42.7
2019-04-05T11:08:19.323Z,42
2019-04-05T11:10:19.434Z,39.5
2019-04-05T11:12:19.105Z,35.6
2019-04-05T11:14:18.761Z,46.9
2019-04-05T11:16:18.865Z,47.1
2019-04-05T11:18:18.572Z,43.2
2019-04-05T11:20:22.806Z,40.7
2019-04-05T11:22:21.223Z,43.2
2019-04-05T11:24:18.881Z,48.3
2019-04-05T11:26:19.210Z,42.6
2019-04-05T11:28:18.835Z,39.8
2019-04-05T11:30:19.510Z,35.2
2019-04-05T11:32:19.174Z,38.6
2019-04-05T11:34:18.848Z,45.5
2019-04-05T11:36:18.749Z,37.4
2019-04-05T11:38:19.407Z,32.3
2019-04-05T11:40:19.542Z,27.5
2019-04-05T11:42:19.238Z,39.1
2019-04-05T11:44:18.958Z,41.6
2019-04-05T11:46:19.388Z,41
2019-04-05T11:48:19.038Z,39.8
2019-04-05T11:50:18.680Z,40.2
2019-04-05T11:52:19.309Z,33.7
2019-04-05T11:54:18.995Z,40.4
2019-04-05T11:56:20.673Z,40.3
2019-04-05T11:58:19.328Z,37.6
2019-04-05T12:00:19.124Z,44.4
2019-04-05T12:02:18.753Z,37.5
2019-04-05T12:04:19.408Z,41.9
2019-04-05T12:06:19.216Z,45.7
2019-04-05T12:08:18.859Z,43
2019-04-05T12:10:19.788Z,50.2
2019-04-05T12:12:19.483Z,40
2019-04-05T12:14:30.764Z,36.8
2019-04-05T12:16:18.890Z,42.9
2019-04-05T12:18:19.921Z,39.3
2019-04-05T12:20:19.711Z,47.4
2019-04-05T12:22:20.277Z,48.5
2019-04-05T12:24:18.914Z,42.5
2019-04-05T12:26:18.701Z,40.2
2019-04-05T12:28:19.326Z,43.4
2019-04-05T12:30:19.016Z,50.3
2019-04-05T12:32:19.030Z,39.9
2019-04-05T12:34:22.374Z,32.5
2019-04-05T12:36:21.938Z,46.8
2019-04-05T12:38:29.037Z,46.6
2019-04-05T12:40:19.193Z,39.2
2019-04-05T12:42:18.818Z,46.2
2019-04-05T12:44:19.431Z,40.8
2019-04-05T12:46:18.623Z,39.2
2019-04-05T12:48:19.217Z,38.9
2019-04-05T12:50:18.874Z,35.7
2019-04-05T12:52:27.342Z,38.5
2019-04-05T12:54:19.112Z,39.7
2019-04-05T12:56:19.259Z,41.6
2019-04-05T12:58:18.907Z,43.8
2019-04-05T13:00:19.566Z,48.5
2019-04-05T13:02:34.041Z,50.6
2019-04-05T13:04:21.396Z,44.2
2019-04-05T13:06:22.511Z,50.8
2019-04-05T13:08:18.248Z,43.9
2019-04-05T13:10:19.542Z,36.7
2019-04-05T13:12:19.267Z,43.6
2019-04-05T13:14:18.981Z,41.8
2019-04-05T13:16:18.984Z,42.2
2019-04-05T13:18:18.787Z,33.8
2019-04-05T13:20:19.567Z,57.2
2019-04-05T13:22:19.297Z,35.3
2019-04-05T13:24:19.044Z,53.8
2019-04-05T13:26:19.467Z,39.8
2019-04-05T13:28:19.782Z,40.7
2019-04-05T13:30:19.603Z,44.7
2019-04-05T13:32:22.520Z,36.9
2019-04-05T13:34:19.311Z,35.9
2019-04-05T13:36:18.744Z,39.5
2019-04-05T13:38:19.470Z,47.1
2019-04-05T13:40:18.759Z,36.3
2019-04-05T13:42:19.474Z,45.6
2019-04-05T13:44:19.208Z,43.7
2019-04-05T13:46:25.928Z,35.7
2019-04-05T13:48:18.832Z,42.9
2019-04-05T13:50:19.824Z,39.1
2019-04-05T13:52:19.512Z,44.8
2019-04-05T13:54:19.261Z,44.4
2019-04-05T13:56:18.701Z,38.2
2019-04-05T13:58:19.421Z,37.9
2019-04-05T14:00:19.249Z,41.6
2019-04-05T14:02:21.725Z,39.9
2019-04-05T14:04:22.017Z,40.9
2019-04-05T14:06:19.484Z,46.2
2019-04-05T14:08:19.238Z,39.6
2019-04-05T14:10:19.482Z,39.5
2019-04-05T14:12:19.244Z,40.3
2019-04-05T14:14:18.951Z,39.3
2019-04-05T14:16:19.361Z,48.7
2019-04-05T14:18:21.071Z,39
2019-04-05T14:20:19.950Z,39.4
2019-04-05T14:22:23.024Z,34
2019-04-05T14:24:18.889Z,38.1
2019-04-05T14:26:19.321Z,46.8
2019-04-05T14:28:18.089Z,41.9
2019-04-05T14:30:18.812Z,40.4
2019-04-05T14:32:22.133Z,41.2
2019-04-05T14:34:18.039Z,39.5
2019-04-05T14:36:18.504Z,35.9
2019-04-05T14:38:18.237Z,45.4
2019-04-05T14:40:18.481Z,31.8
2019-04-05T14:42:18.225Z,38.2
2019-04-05T14:44:17.949Z,38.9
2019-04-05T14:46:18.508Z,34
2019-04-05T14:48:18.244Z,34.1
2019-04-05T14:50:17.984Z,31.8
2019-04-05T14:52:18.717Z,34.2
2019-04-05T14:54:18.432Z,38.7
2019-04-05T14:56:18.849Z,38.7
2019-04-05T14:58:19.660Z,41.6
2019-04-05T15:00:19.422Z,36
2019-04-05T15:02:19.180Z,36.7
2019-04-05T15:04:17.941Z,37.6
2019-04-05T15:06:18.418Z,41.6
2019-04-05T15:08:21.216Z,34
2019-04-05T15:10:18.515Z,38.2
2019-04-05T15:12:18.264Z,35.8
2019-04-05T15:14:17.963Z,31.5
2019-04-05T15:16:18.365Z,32
2019-04-05T15:18:19.890Z,38.8
2019-04-05T15:20:18.684Z,39.5
2019-04-05T15:22:18.428Z,40.8
2019-04-05T15:24:18.213Z,40
2019-04-05T15:26:21.483Z,38.3
2019-04-05T15:28:18.286Z,32.9
2019-04-05T15:30:18.069Z,36.4
2019-04-05T15:32:19.536Z,39.1
2019-04-05T15:34:18.281Z,33.5
2019-04-05T15:36:17.670Z,36.6
2019-04-05T15:38:18.399Z,35.6
2019-04-05T15:40:19.757Z,36.5
2019-04-05T15:42:19.535Z,40.6
2019-04-05T15:44:18.245Z,35.5
2019-04-05T15:46:19.164Z,40.2
2019-04-05T15:48:17.917Z,35.6
2019-04-05T15:50:22.494Z,40
2019-04-05T15:52:19.596Z,34.3
2019-04-05T15:54:19.336Z,39
2019-04-05T15:56:18.724Z,38.7
2019-04-05T15:58:19.457Z,44.7
2019-04-05T16:00:19.253Z,45.8
2019-04-05T16:02:18.954Z,38
2019-04-05T16:04:18.701Z,40.1
2019-04-05T16:06:19.188Z,41.8
2019-04-05T16:08:18.908Z,42.8
2019-04-05T16:10:19.188Z,43.2
2019-04-05T16:12:18.925Z,33.4
2019-04-05T16:14:19.626Z,40.6
2019-04-05T16:16:19.050Z,35.3
2019-04-05T16:18:18.888Z,37.3
2019-04-05T16:20:19.646Z,43.5
2019-04-05T16:22:31.769Z,39.1
2019-04-05T16:24:19.538Z,35.6
2019-04-05T16:26:18.965Z,46.2
2019-04-05T16:28:18.699Z,38.3
2019-04-05T16:30:19.456Z,43
2019-04-05T16:32:19.189Z,39
2019-04-05T16:34:18.935Z,44.8
2019-04-05T16:36:19.350Z,42.7
2019-04-05T16:38:19.101Z,36.5
2019-04-05T16:40:19.390Z,49
2019-04-05T16:42:19.155Z,43.1
2019-04-05T16:44:18.885Z,37.3
2019-04-05T16:46:19.309Z,42.4
2019-04-05T16:48:19.012Z,46.1
2019-04-05T16:50:21.583Z,46.3
2019-04-05T16:52:19.317Z,43.8
2019-04-05T16:54:19.069Z,50.6
2019-04-05T16:56:18.961Z,36.8
2019-04-05T16:58:18.686Z,49.2
2019-04-05T17:00:19.421Z,48.1
2019-04-05T17:02:19.173Z,51.1
2019-04-05T17:04:18.896Z,43.1
2019-04-05T17:06:19.293Z,55.2
2019-04-05T17:08:19.011Z,38.6
2019-04-05T17:10:19.190Z,43.6
2019-04-05T17:12:18.931Z,49.7
2019-04-05T17:14:19.607Z,58
2019-04-05T17:16:19.007Z,49.5
2019-04-05T17:18:18.809Z,47.5
2019-04-05T17:20:19.562Z,50.1
2019-04-05T17:22:19.318Z,45.8
2019-04-05T17:24:19.010Z,37.4
2019-04-05T17:26:19.432Z,45.7
2019-04-05T17:28:19.137Z,38.3
2019-04-05T17:30:18.913Z,48.7
2019-04-05T17:32:19.606Z,43
2019-04-05T17:34:19.330Z,42
2019-04-05T17:36:18.805Z,46
2019-04-05T17:38:19.554Z,55.1
2019-04-05T17:40:18.785Z,43.5
2019-04-05T17:42:19.491Z,50.1
2019-04-05T17:44:19.200Z,59.4
2019-04-05T17:46:19.587Z,45.3
2019-04-05T17:48:19.291Z,41.2
2019-04-05T17:50:18.993Z,40.1
2019-04-05T17:52:18.717Z,46.1
2019-04-05T17:54:19.395Z,48.3
2019-04-05T17:56:18.812Z,39.8
2019-04-05T17:58:19.482Z,39.6
2019-04-05T18:00:19.261Z,51.6
2019-04-05T18:02:18.922Z,41.4
2019-04-05T18:04:19.628Z,44.5
2019-04-05T18:06:19.009Z,50.5
2019-04-05T18:08:18.721Z,42.3
2019-04-05T18:10:19.058Z,49.5
2019-04-05T18:12:18.711Z,51.5
2019-04-05T18:14:19.440Z,55.3
2019-04-05T18:16:18.944Z,47.1
2019-04-05T18:18:18.682Z,47.4
2019-04-05T18:20:19.455Z,51.9
2019-04-05T18:22:19.165Z,56.9
2019-04-05T18:24:18.911Z,55.7
2019-04-05T18:26:19.396Z,46.6
2019-04-05T18:28:19.114Z,67.7
2019-04-05T18:30:18.911Z,47
2019-04-05T18:32:19.607Z,44.2
2019-04-05T18:34:19.316Z,49.6
2019-04-05T18:36:18.659Z,49.9
2019-04-05T18:38:19.382Z,55.8
2019-04-05T18:40:19.677Z,55.6
2019-04-05T18:42:19.385Z,42.5
2019-04-05T18:44:19.109Z,49.3
2019-04-05T18:46:19.505Z,53.3
2019-04-05T18:48:19.232Z,50.2
2019-04-05T18:50:18.980Z,47.7
2019-04-05T18:52:18.709Z,56.7
2019-04-05T18:54:19.390Z,47.3
2019-04-05T18:56:18.786Z,58.4
2019-04-05T18:58:19.504Z,57.9
2019-04-05T19:00:19.297Z,41.9
2019-04-05T19:02:18.950Z,51.9
2019-04-05T19:04:18.678Z,57.7
2019-04-05T19:06:19.171Z,52.3
2019-04-05T19:08:18.862Z,55.8
2019-04-05T19:10:19.114Z,56.9
2019-04-05T19:12:18.832Z,46.9
2019-04-05T19:14:19.569Z,55.2
2019-04-05T19:16:19.032Z,52
2019-04-05T19:18:18.922Z,44.4
2019-04-05T19:20:19.663Z,57.1
2019-04-05T19:22:19.384Z,46.1
2019-04-05T19:24:19.043Z,45.8
2019-04-05T19:26:19.166Z,52.5
2019-04-05T19:28:18.889Z,51.4
2019-04-05T19:50:19.605Z,51.6
2019-04-05T19:52:19.343Z,63.6
2019-04-05T19:54:19.030Z,55.3
2019-04-05T19:56:19.434Z,58.2
2019-04-05T19:58:19.157Z,54.6
2019-04-05T20:00:18.964Z,57.6
2019-04-05T20:02:18.681Z,53.5
2019-04-05T20:04:19.394Z,53.3
2019-04-05T20:06:19.387Z,68.1
2019-04-05T20:08:19.117Z,47.9
2019-04-05T20:10:19.420Z,58.4
2019-04-05T20:12:19.172Z,50.5
2019-04-05T20:14:18.878Z,58.4
2019-04-05T20:16:19.336Z,52.4
2019-04-05T20:18:19.140Z,55.2
2019-04-05T20:20:18.881Z,49
2019-04-05T20:22:19.601Z,48.4
2019-04-05T20:24:19.315Z,57.5
2019-04-05T20:26:18.736Z,55
2019-04-05T20:28:19.448Z,49.2
2019-04-05T20:30:19.236Z,49.2
2019-04-05T20:32:18.941Z,53.3
2019-04-05T20:34:18.673Z,54.5
2019-04-05T20:36:19.167Z,50.9
2019-04-05T20:38:18.885Z,59.6
2019-04-05T20:40:19.165Z,48.5
2019-04-05T20:42:18.881Z,54.1
2019-04-05T20:44:19.581Z,52.8
2019-04-05T20:46:18.999Z,62.4
2019-04-05T20:48:18.690Z,62.4
2019-04-05T20:50:19.458Z,46
2019-04-05T20:52:19.139Z,49.3
2019-04-05T20:54:25.106Z,44.2
2019-04-05T20:56:19.519Z,60.2
2019-04-05T20:58:19.243Z,52.4
2019-04-05T21:00:18.995Z,40.9
2019-04-05T21:02:18.699Z,47.8
2019-04-05T21:04:19.439Z,54.5
2019-04-05T21:06:18.858Z,52.1
2019-04-05T21:08:19.556Z,49.5
2019-04-05T21:10:18.805Z,56.9
2019-04-05T21:12:19.507Z,54.6
2019-04-05T21:14:19.214Z,50.4
2019-04-05T21:16:19.127Z,55.4
2019-04-05T21:18:18.917Z,51.1
2019-04-05T21:20:19.627Z,46.7
2019-04-05T21:22:19.323Z,51.4
2019-04-05T21:24:19.012Z,56
2019-04-05T21:26:19.435Z,53.5
2019-04-05T21:28:19.122Z,47.5
2019-04-05T21:30:18.924Z,54.8
2019-04-05T21:32:19.589Z,48.5
2019-04-05T21:34:19.283Z,54.9
2019-04-05T21:36:18.709Z,51.4
2019-04-05T21:38:19.430Z,55.6
2019-04-05T21:40:18.732Z,58.6
2019-04-05T21:42:19.417Z,58
2019-04-05T21:44:19.143Z,44.3
2019-04-05T21:46:19.561Z,55.3
2019-04-05T21:48:19.325Z,49.5
2019-04-05T21:50:19.093Z,61.7
2019-04-05T21:52:18.777Z,48.7
2019-04-05T21:54:19.476Z,55.5
2019-04-05T21:56:19.357Z,57.3
2019-04-05T21:58:19.089Z,48.9
2019-04-05T22:00:20.739Z,63.3
2019-04-05T22:02:19.475Z,58.2
2019-04-05T22:04:19.157Z,49
2019-04-05T22:06:19.611Z,49
2019-04-05T22:08:19.307Z,53
2019-04-05T22:10:19.508Z,49.5
2019-04-05T22:12:19.251Z,59.4
2019-04-05T22:14:18.948Z,60.9
2019-04-05T22:16:19.338Z,57.7
2019-04-05T22:18:19.158Z,61.6
2019-04-05T22:20:18.887Z,57.4
2019-04-05T22:22:19.674Z,55.1
2019-04-05T22:24:19.357Z,52.2
2019-04-05T22:26:18.825Z,51
2019-04-05T22:28:19.529Z,65.7
2019-04-05T22:30:19.327Z,61
2019-04-05T22:32:19.043Z,59.9
2019-04-05T22:34:18.745Z,57.8
2019-04-05T22:36:19.247Z,50.8
2019-04-05T22:38:18.927Z,56.8
2019-04-05T22:40:19.157Z,49.5
2019-04-05T22:42:18.861Z,56
2019-04-05T22:44:19.577Z,57.8
2019-04-05T22:46:19.000Z,72
2019-04-05T22:48:18.665Z,58.9
2019-04-05T22:50:19.351Z,57.6
2019-04-05T22:52:19.062Z,46.7
2019-04-05T22:54:18.724Z,58.3
2019-04-05T22:56:19.041Z,49.7
2019-04-05T22:58:18.752Z,57.7
2019-04-05T23:00:19.629Z,52.4
2019-04-05T23:02:19.301Z,57
2019-04-05T23:04:19.021Z,51
2019-04-05T23:06:19.457Z,49.2
2019-04-05T23:08:19.175Z,56.8
2019-04-05T23:10:19.449Z,50.8
2019-04-05T23:12:19.178Z,51.1
2019-04-05T23:14:18.903Z,52.5
2019-04-05T23:16:19.329Z,49.6
2019-04-05T23:18:19.112Z,53.9
2019-04-05T23:20:18.852Z,53.9
2019-04-05T23:22:19.519Z,63.9
2019-04-05T23:24:19.230Z,60.2
2019-04-05T23:26:18.764Z,56.8
2019-04-05T23:28:19.445Z,56.3
2019-04-05T23:30:19.235Z,54.4
2019-04-05T23:32:18.921Z,58.6
2019-04-05T23:34:19.624Z,60
2019-04-05T23:36:19.479Z,54.3
2019-04-05T23:38:19.194Z,51.3
2019-04-05T23:40:19.475Z,52.1
2019-04-05T23:42:19.196Z,60.5
2019-04-05T23:44:18.883Z,63.7
2019-04-05T23:46:19.298Z,60.4
2019-04-05T23:48:18.983Z,52.9
2019-04-05T23:50:18.742Z,49.3
2019-04-05T23:52:19.444Z,53.9
2019-04-05T23:54:19.168Z,57.2
2019-04-05T23:56:18.714Z,46.4
2019-04-05T23:58:19.428Z,46.7
